Webcam Flughafen St.Gallen-Altenrhein

Live-Bilder und Zeitraffer LSZR / ACH.

 

Live aus Altenrhein
LIVE
LSZR 080720Z AUTO VRB01KT CAVOK 10/07 Q1027
Zeitraffer heute
2020-04-08 00:14:05
LSZR 072150Z AUTO VRB03KT CAVOK 09/04 Q1026